sensor_id;sensor_type;location;lat;lon;timestamp;pressure;altitude;pressure_sealevel;temperature;humidity
62655;BME280;48717;55.556;37.816;2022-12-01T00:01:20;102068.34;;;-14.99;92.46
62655;BME280;48717;55.556;37.816;2022-12-01T00:03:47;102068.13;;;-15.01;92.28
62655;BME280;48717;55.556;37.816;2022-12-01T00:06:17;102066.47;;;-15.00;92.30
62655;BME280;48717;55.556;37.816;2022-12-01T00:08:47;102092.56;;;-14.88;92.20
62655;BME280;48717;55.556;37.816;2022-12-01T00:11:34;102088.22;;;-14.89;92.34
62655;BME280;48717;55.556;37.816;2022-12-01T00:14:02;102061.91;;;-15.03;92.69
62655;BME280;48717;55.556;37.816;2022-12-01T00:16:29;102086.59;;;-14.89;92.89
62655;BME280;48717;55.556;37.816;2022-12-01T00:18:57;102066.69;;;-14.99;92.77
62655;BME280;48717;55.556;37.816;2022-12-01T00:21:25;102074.81;;;-14.88;93.22
62655;BME280;48717;55.556;37.816;2022-12-01T00:23:54;102055.44;;;-15.01;92.80
62655;BME280;48717;55.556;37.816;2022-12-01T00:26:25;102082.63;;;-14.87;93.22
62655;BME280;48717;55.556;37.816;2022-12-01T00:28:53;102077.78;;;-14.85;93.06
62655;BME280;48717;55.556;37.816;2022-12-01T00:31:21;102074.16;;;-14.87;93.13
62655;BME280;48717;55.556;37.816;2022-12-01T00:33:48;102055.44;;;-15.01;93.23
62655;BME280;48717;55.556;37.816;2022-12-01T00:36:15;102075.53;;;-14.89;93.50
62655;BME280;48717;55.556;37.816;2022-12-01T00:38:42;102089.13;;;-14.89;93.41
62655;BME280;48717;55.556;37.816;2022-12-01T00:41:09;102088.00;;;-14.91;92.98
62655;BME280;48717;55.556;37.816;2022-12-01T00:43:36;102073.41;;;-14.99;92.57
62655;BME280;48717;55.556;37.816;2022-12-01T00:46:04;102090.34;;;-14.92;93.03
62655;BME280;48717;55.556;37.816;2022-12-01T00:48:31;102084.41;;;-14.99;92.76
62655;BME280;48717;55.556;37.816;2022-12-01T00:50:58;102085.41;;;-15.04;92.16
62655;BME280;48717;55.556;37.816;2022-12-01T00:53:25;102050.47;;;-15.25;91.97
62655;BME280;48717;55.556;37.816;2022-12-01T00:55:52;102091.47;;;-15.09;91.94
62655;BME280;48717;55.556;37.816;2022-12-01T00:58:22;102093.78;;;-15.11;92.15
62655;BME280;48717;55.556;37.816;2022-12-01T01:00:57;102077.44;;;-15.13;92.34
62655;BME280;48717;55.556;37.816;2022-12-01T01:03:25;102081.41;;;-15.15;92.33
62655;BME280;48717;55.556;37.816;2022-12-01T01:05:52;102071.75;;;-15.17;91.79
62655;BME280;48717;55.556;37.816;2022-12-01T01:08:20;102085.63;;;-15.21;92.33
62655;BME280;48717;55.556;37.816;2022-12-01T01:10:47;102094.81;;;-15.22;92.24
62655;BME280;48717;55.556;37.816;2022-12-01T01:13:15;102083.88;;;-15.28;91.77
62655;BME280;48717;55.556;37.816;2022-12-01T01:15:42;102065.16;;;-15.41;91.60
62655;BME280;48717;55.556;37.816;2022-12-01T01:18:10;102092.13;;;-15.29;91.18
62655;BME280;48717;55.556;37.816;2022-12-01T01:20:37;102090.38;;;-15.36;90.50
62655;BME280;48717;55.556;37.816;2022-12-01T01:23:05;102064.81;;;-15.56;91.03
62655;BME280;48717;55.556;37.816;2022-12-01T01:25:32;102057.25;;;-15.56;91.77
62655;BME280;48717;55.556;37.816;2022-12-01T01:28:02;102067.56;;;-15.54;92.39
62655;BME280;48717;55.556;37.816;2022-12-01T01:30:29;102071.16;;;-15.47;92.75
62655;BME280;48717;55.556;37.816;2022-12-01T01:32:56;102087.75;;;-15.49;92.71
62655;BME280;48717;55.556;37.816;2022-12-01T01:35:25;102088.88;;;-15.47;93.32
62655;BME280;48717;55.556;37.816;2022-12-01T01:37:52;102077.63;;;-15.49;93.22
62655;BME280;48717;55.556;37.816;2022-12-01T01:40:19;102078.13;;;-15.51;92.78
62655;BME280;48717;55.556;37.816;2022-12-01T01:42:46;102063.00;;;-15.57;93.29
62655;BME280;48717;55.556;37.816;2022-12-01T01:45:28;102074.66;;;-15.52;92.96
62655;BME280;48717;55.556;37.816;2022-12-01T01:47:57;102078.41;;;-15.55;93.47
62655;BME280;48717;55.556;37.816;2022-12-01T01:50:27;102052.16;;;-15.75;92.93
62655;BME280;48717;55.556;37.816;2022-12-01T01:53:00;102016.44;;;-15.89;92.86
62655;BME280;48717;55.556;37.816;2022-12-01T01:55:30;102043.00;;;-15.80;92.56
62655;BME280;48717;55.556;37.816;2022-12-01T01:58:00;102034.38;;;-15.88;92.72
62655;BME280;48717;55.556;37.816;2022-12-01T02:00:28;102070.03;;;-15.67;92.55
62655;BME280;48717;55.556;37.816;2022-12-01T02:02:58;102048.56;;;-15.82;92.32
62655;BME280;48717;55.556;37.816;2022-12-01T02:05:31;102066.41;;;-15.75;92.47
62655;BME280;48717;55.556;37.816;2022-12-01T02:08:01;102053.84;;;-15.81;92.27
62655;BME280;48717;55.556;37.816;2022-12-01T02:13:28;102085.69;;;-15.70;91.67
62655;BME280;48717;55.556;37.816;2022-12-01T02:16:06;102076.19;;;-15.65;92.62
62655;BME280;48717;55.556;37.816;2022-12-01T02:27:04;102066.13;;;-15.71;91.42
62655;BME280;48717;55.556;37.816;2022-12-01T02:32:11;102004.66;;;-16.02;91.63
62655;BME280;48717;55.556;37.816;2022-12-01T02:35:15;102078.19;;;-15.57;92.58
62655;BME280;48717;55.556;37.816;2022-12-01T02:43:16;102074.06;;;-15.56;92.32
62655;BME280;48717;55.556;37.816;2022-12-01T02:45:49;102066.25;;;-15.58;92.70
62655;BME280;48717;55.556;37.816;2022-12-01T02:48:39;102069.56;;;-15.46;92.45
62655;BME280;48717;55.556;37.816;2022-12-01T02:51:12;102073.00;;;-15.45;92.12
62655;BME280;48717;55.556;37.816;2022-12-01T02:53:40;102078.06;;;-15.45;91.90
62655;BME280;48717;55.556;37.816;2022-12-01T02:56:10;102079.47;;;-15.48;91.69
62655;BME280;48717;55.556;37.816;2022-12-01T02:58:38;102076.75;;;-15.55;91.02
62655;BME280;48717;55.556;37.816;2022-12-01T03:07:14;102062.72;;;-15.53;91.86
62655;BME280;48717;55.556;37.816;2022-12-01T03:15:30;102066.66;;;-15.55;91.46
62655;BME280;48717;55.556;37.816;2022-12-01T03:18:12;102055.69;;;-15.61;91.76
62655;BME280;48717;55.556;37.816;2022-12-01T03:23:22;102062.84;;;-15.64;91.02
62655;BME280;48717;55.556;37.816;2022-12-01T03:25:53;102061.72;;;-15.66;91.14
62655;BME280;48717;55.556;37.816;2022-12-01T03:28:30;102048.88;;;-15.68;91.01
62655;BME280;48717;55.556;37.816;2022-12-01T03:31:02;102056.94;;;-15.70;90.55
62655;BME280;48717;55.556;37.816;2022-12-01T03:33:40;102026.56;;;-15.89;90.49
62655;BME280;48717;55.556;37.816;2022-12-01T03:36:13;102065.94;;;-15.72;90.70
62655;BME280;48717;55.556;37.816;2022-12-01T03:38:44;102060.44;;;-15.76;90.23
62655;BME280;48717;55.556;37.816;2022-12-01T03:41:23;102060.00;;;-15.79;90.71
62655;BME280;48717;55.556;37.816;2022-12-01T03:43:55;102039.06;;;-15.96;90.29
62655;BME280;48717;55.556;37.816;2022-12-01T03:46:40;102052.47;;;-15.84;90.47
62655;BME280;48717;55.556;37.816;2022-12-01T03:49:12;102044.81;;;-15.97;89.97
62655;BME280;48717;55.556;37.816;2022-12-01T03:51:50;102072.03;;;-15.83;89.86
62655;BME280;48717;55.556;37.816;2022-12-01T03:57:06;102065.50;;;-15.76;91.40
62655;BME280;48717;55.556;37.816;2022-12-01T03:59:36;102043.84;;;-15.74;91.46
62655;BME280;48717;55.556;37.816;2022-12-01T04:02:06;102040.66;;;-15.72;91.54
62655;BME280;48717;55.556;37.816;2022-12-01T04:04:33;102002.84;;;-16.03;90.71
62655;BME280;48717;55.556;37.816;2022-12-01T04:07:00;102038.50;;;-15.88;90.09
62655;BME280;48717;55.556;37.816;2022-12-01T04:09:27;102061.16;;;-15.77;90.18
62655;BME280;48717;55.556;37.816;2022-12-01T04:11:54;102060.44;;;-15.76;90.02
62655;BME280;48717;55.556;37.816;2022-12-01T04:14:40;102043.44;;;-15.77;90.91
62655;BME280;48717;55.556;37.816;2022-12-01T04:17:07;102034.56;;;-15.86;90.90
62655;BME280;48717;55.556;37.816;2022-12-01T04:19:34;102024.59;;;-15.79;91.09
62655;BME280;48717;55.556;37.816;2022-12-01T04:22:02;102034.28;;;-15.82;91.25
62655;BME280;48717;55.556;37.816;2022-12-01T04:24:29;102058.44;;;-15.59;91.83
62655;BME280;48717;55.556;37.816;2022-12-01T04:26:56;102054.56;;;-15.63;91.75
62655;BME280;48717;55.556;37.816;2022-12-01T04:29:23;102053.59;;;-15.58;92.71
62655;BME280;48717;55.556;37.816;2022-12-01T04:31:50;102058.78;;;-15.51;91.86
62655;BME280;48717;55.556;37.816;2022-12-01T04:34:17;102051.78;;;-15.59;91.33
62655;BME280;48717;55.556;37.816;2022-12-01T04:36:44;102063.44;;;-15.54;90.90
62655;BME280;48717;55.556;37.816;2022-12-01T04:39:11;102045.72;;;-15.72;90.67
62655;BME280;48717;55.556;37.816;2022-12-01T04:41:38;102057.09;;;-15.63;91.17
62655;BME280;48717;55.556;37.816;2022-12-01T04:44:05;102035.88;;;-15.77;91.74
62655;BME280;48717;55.556;37.816;2022-12-01T04:46:33;102071.16;;;-15.47;92.16
62655;BME280;48717;55.556;37.816;2022-12-01T04:49:00;102063.09;;;-15.44;93.38
62655;BME280;48717;55.556;37.816;2022-12-01T04:51:27;102071.47;;;-15.32;93.17
62655;BME280;48717;55.556;37.816;2022-12-01T04:53:55;102068.97;;;-15.32;92.88
62655;BME280;48717;55.556;37.816;2022-12-01T04:56:22;102067.38;;;-15.37;91.91
62655;BME280;48717;55.556;37.816;2022-12-01T04:58:49;102061.47;;;-15.43;91.05
62655;BME280;48717;55.556;37.816;2022-12-01T05:01:17;102048.66;;;-15.51;91.14
62655;BME280;48717;55.556;37.816;2022-12-01T05:03:46;102032.34;;;-15.71;90.44
62655;BME280;48717;55.556;37.816;2022-12-01T05:06:19;102070.81;;;-15.55;89.91
62655;BME280;48717;55.556;37.816;2022-12-01T05:08:47;102056.13;;;-15.58;90.74
62655;BME280;48717;55.556;37.816;2022-12-01T05:11:15;102060.59;;;-15.68;90.89
62655;BME280;48717;55.556;37.816;2022-12-01T05:13:44;102064.44;;;-15.59;91.35
62655;BME280;48717;55.556;37.816;2022-12-01T05:18:40;102080.53;;;-15.64;90.09
62655;BME280;48717;55.556;37.816;2022-12-01T05:21:09;102065.19;;;-15.66;90.04
62655;BME280;48717;55.556;37.816;2022-12-01T05:23:37;102049.94;;;-15.84;89.34
62655;BME280;48717;55.556;37.816;2022-12-01T05:26:08;102075.34;;;-15.71;89.57
62655;BME280;48717;55.556;37.816;2022-12-01T05:28:35;102084.22;;;-15.62;89.71
62655;BME280;48717;55.556;37.816;2022-12-01T05:31:05;102054.25;;;-15.78;90.87
62655;BME280;48717;55.556;37.816;2022-12-01T05:33:33;102097.50;;;-15.57;90.90
62655;BME280;48717;55.556;37.816;2022-12-01T05:36:00;102094.06;;;-15.58;90.24
62655;BME280;48717;55.556;37.816;2022-12-01T05:38:28;102090.38;;;-15.60;89.98
62655;BME280;48717;55.556;37.816;2022-12-01T05:40:55;102095.44;;;-15.60;90.42
62655;BME280;48717;55.556;37.816;2022-12-01T05:43:23;102083.78;;;-15.65;89.77
62655;BME280;48717;55.556;37.816;2022-12-01T05:45:56;102089.28;;;-15.62;90.24
62655;BME280;48717;55.556;37.816;2022-12-01T05:48:24;102080.53;;;-15.64;89.72
62655;BME280;48717;55.556;37.816;2022-12-01T05:50:52;102092.44;;;-15.57;88.80
62655;BME280;48717;55.556;37.816;2022-12-01T05:53:20;102038.97;;;-15.91;88.74
62655;BME280;48717;55.556;37.816;2022-12-01T05:55:52;102094.34;;;-15.62;88.08
62655;BME280;48717;55.556;37.816;2022-12-01T05:58:20;102098.91;;;-15.59;88.05
62655;BME280;48717;55.556;37.816;2022-12-01T06:00:48;101995.34;;;-16.14;87.89
62655;BME280;48717;55.556;37.816;2022-12-01T06:03:15;102058.19;;;-15.80;87.89
62655;BME280;48717;55.556;37.816;2022-12-01T06:05:43;102082.81;;;-15.60;88.20
62655;BME280;48717;55.556;37.816;2022-12-01T06:08:12;102097.72;;;-15.56;88.50
62655;BME280;48717;55.556;37.816;2022-12-01T06:10:42;102088.03;;;-15.53;88.31
62655;BME280;48717;55.556;37.816;2022-12-01T06:13:11;102089.03;;;-15.39;88.90
62655;BME280;48717;55.556;37.816;2022-12-01T06:15:39;102087.56;;;-15.31;89.56
62655;BME280;48717;55.556;37.816;2022-12-01T06:18:06;102089.31;;;-15.25;88.85
62655;BME280;48717;55.556;37.816;2022-12-01T06:20:33;102072.66;;;-15.36;88.67
62655;BME280;48717;55.556;37.816;2022-12-01T06:23:00;102067.75;;;-15.28;88.57
62655;BME280;48717;55.556;37.816;2022-12-01T06:25:27;102098.06;;;-15.04;89.38
62655;BME280;48717;55.556;37.816;2022-12-01T06:27:58;102088.88;;;-15.03;89.77
62655;BME280;48717;55.556;37.816;2022-12-01T06:30:26;102103.56;;;-14.82;89.72
62655;BME280;48717;55.556;37.816;2022-12-01T06:32:55;102083.00;;;-14.78;90.59
62655;BME280;48717;55.556;37.816;2022-12-01T06:35:23;102102.38;;;-14.65;90.19
62655;BME280;48717;55.556;37.816;2022-12-01T06:37:52;102107.06;;;-14.56;88.87
62655;BME280;48717;55.556;37.816;2022-12-01T06:40:20;102077.34;;;-14.70;87.89
62655;BME280;48717;55.556;37.816;2022-12-01T06:42:47;102073.66;;;-14.72;87.18
62655;BME280;48717;55.556;37.816;2022-12-01T06:45:14;102106.69;;;-14.46;86.63
62655;BME280;48717;55.556;37.816;2022-12-01T06:47:41;102111.47;;;-14.42;85.68
62655;BME280;48717;55.556;37.816;2022-12-01T06:50:16;102104.31;;;-14.38;86.11
62655;BME280;48717;55.556;37.816;2022-12-01T06:52:43;102118.22;;;-14.29;85.62
62655;BME280;48717;55.556;37.816;2022-12-01T06:55:11;102114.66;;;-14.24;85.60
62655;BME280;48717;55.556;37.816;2022-12-01T06:57:38;102102.81;;;-14.18;85.42
62655;BME280;48717;55.556;37.816;2022-12-01T07:00:06;102107.50;;;-14.08;85.87
62655;BME280;48717;55.556;37.816;2022-12-01T07:02:34;102103.97;;;-14.03;86.00
62655;BME280;48717;55.556;37.816;2022-12-01T07:05:02;102085.63;;;-13.94;86.65
62655;BME280;48717;55.556;37.816;2022-12-01T07:07:29;102107.97;;;-13.66;86.60
62655;BME280;48717;55.556;37.816;2022-12-01T07:10:00;102099.50;;;-13.46;86.19
62655;BME280;48717;55.556;37.816;2022-12-01T07:12:29;102067.72;;;-13.37;85.59
62655;BME280;48717;55.556;37.816;2022-12-01T07:14:57;102075.03;;;-12.99;85.59
62655;BME280;48717;55.556;37.816;2022-12-01T07:17:24;102097.25;;;-12.57;85.46
62655;BME280;48717;55.556;37.816;2022-12-01T07:19:52;102096.97;;;-12.26;84.43
62655;BME280;48717;55.556;37.816;2022-12-01T07:22:19;102079.47;;;-12.10;81.47
62655;BME280;48717;55.556;37.816;2022-12-01T07:24:46;102067.88;;;-12.00;81.07
62655;BME280;48717;55.556;37.816;2022-12-01T07:27:13;102076.41;;;-11.80;79.46
62655;BME280;48717;55.556;37.816;2022-12-01T07:29:41;102088.13;;;-11.67;78.76
62655;BME280;48717;55.556;37.816;2022-12-01T07:32:08;102088.53;;;-11.57;78.07
62655;BME280;48717;55.556;37.816;2022-12-01T07:34:35;102041.09;;;-11.84;77.91
62655;BME280;48717;55.556;37.816;2022-12-01T07:37:02;102096.63;;;-11.39;78.53
62655;BME280;48717;55.556;37.816;2022-12-01T07:39:29;102089.31;;;-11.43;77.16
62655;BME280;48717;55.556;37.816;2022-12-01T07:41:56;102090.00;;;-11.51;76.31
62655;BME280;48717;55.556;37.816;2022-12-01T07:44:23;102055.09;;;-11.87;75.66
62655;BME280;48717;55.556;37.816;2022-12-01T07:46:50;102106.94;;;-11.80;75.75
62655;BME280;48717;55.556;37.816;2022-12-01T07:49:17;102105.56;;;-11.98;75.73
62655;BME280;48717;55.556;37.816;2022-12-01T07:51:44;102088.56;;;-12.04;76.30
62655;BME280;48717;55.556;37.816;2022-12-01T07:54:12;102114.16;;;-11.90;75.62
62655;BME280;48717;55.556;37.816;2022-12-01T07:56:43;102111.41;;;-11.91;75.27
62655;BME280;48717;55.556;37.816;2022-12-01T07:59:10;102085.53;;;-12.02;76.21
62655;BME280;48717;55.556;37.816;2022-12-01T08:01:39;102101.88;;;-12.00;75.30
62655;BME280;48717;55.556;37.816;2022-12-01T08:04:11;102113.75;;;-11.93;74.78
62655;BME280;48717;55.556;37.816;2022-12-01T08:06:38;102116.72;;;-11.83;75.01
62655;BME280;48717;55.556;37.816;2022-12-01T08:09:14;102092.44;;;-11.73;74.70
62655;BME280;48717;55.556;37.816;2022-12-01T08:11:41;102099.22;;;-11.32;73.73
62655;BME280;48717;55.556;37.816;2022-12-01T08:14:08;102099.72;;;-10.99;73.02
62655;BME280;48717;55.556;37.816;2022-12-01T08:16:35;102102.69;;;-10.82;72.18
62655;BME280;48717;55.556;37.816;2022-12-01T08:19:03;102071.34;;;-10.88;71.25
62655;BME280;48717;55.556;37.816;2022-12-01T08:21:30;102088.13;;;-10.68;69.97
62655;BME280;48717;55.556;37.816;2022-12-01T08:24:03;102045.16;;;-10.80;69.15
62655;BME280;48717;55.556;37.816;2022-12-01T08:26:31;102047.69;;;-10.72;69.15
62655;BME280;48717;55.556;37.816;2022-12-01T08:29:00;102098.72;;;-10.36;68.29
62655;BME280;48717;55.556;37.816;2022-12-01T08:31:30;102076.13;;;-10.55;68.74
62655;BME280;48717;55.556;37.816;2022-12-01T08:34:06;102089.59;;;-10.41;68.96
62655;BME280;48717;55.556;37.816;2022-12-01T08:36:37;102075.59;;;-10.38;68.96
62655;BME280;48717;55.556;37.816;2022-12-01T08:39:06;102073.75;;;-10.10;68.90
62655;BME280;48717;55.556;37.816;2022-12-01T08:41:33;102104.91;;;-9.68;67.37
62655;BME280;48717;55.556;37.816;2022-12-01T08:44:00;102102.25;;;-9.39;67.27
62655;BME280;48717;55.556;37.816;2022-12-01T08:46:31;102056.38;;;-9.23;65.80
62655;BME280;48717;55.556;37.816;2022-12-01T08:49:02;102089.84;;;-8.60;64.56
62655;BME280;48717;55.556;37.816;2022-12-01T08:51:30;102091.28;;;-8.08;63.03
62655;BME280;48717;55.556;37.816;2022-12-01T08:53:59;102077.72;;;-7.68;61.18
62655;BME280;48717;55.556;37.816;2022-12-01T08:58:57;102020.19;;;-7.95;60.35
62655;BME280;48717;55.556;37.816;2022-12-01T09:01:35;102077.13;;;-7.81;61.26
62655;BME280;48717;55.556;37.816;2022-12-01T09:04:24;102068.81;;;-8.11;61.99
62655;BME280;48717;55.556;37.816;2022-12-01T09:06:55;102073.13;;;-8.26;63.49
62655;BME280;48717;55.556;37.816;2022-12-01T09:09:26;102072.31;;;-8.57;63.25
62655;BME280;48717;55.556;37.816;2022-12-01T09:11:55;102060.44;;;-8.95;65.36
62655;BME280;48717;55.556;37.816;2022-12-01T09:14:22;102068.94;;;-9.10;66.29
62655;BME280;48717;55.556;37.816;2022-12-01T09:16:50;102070.41;;;-9.12;66.99
62655;BME280;48717;55.556;37.816;2022-12-01T09:19:21;102046.41;;;-9.29;66.40
62655;BME280;48717;55.556;37.816;2022-12-01T09:21:51;102056.25;;;-9.32;67.44
62655;BME280;48717;55.556;37.816;2022-12-01T09:24:18;102080.00;;;-9.33;67.80
62655;BME280;48717;55.556;37.816;2022-12-01T09:26:46;102063.25;;;-9.46;68.32
62655;BME280;48717;55.556;37.816;2022-12-01T09:29:24;102049.03;;;-9.51;68.74
62655;BME280;48717;55.556;37.816;2022-12-01T09:31:57;102075.66;;;-9.49;69.17
62655;BME280;48717;55.556;37.816;2022-12-01T09:34:41;102052.72;;;-9.63;69.26
62655;BME280;48717;55.556;37.816;2022-12-01T09:37:08;102049.84;;;-9.74;70.17
62655;BME280;48717;55.556;37.816;2022-12-01T09:39:36;102052.41;;;-9.81;70.40
62655;BME280;48717;55.556;37.816;2022-12-01T09:42:09;102060.25;;;-9.79;70.79
62655;BME280;48717;55.556;37.816;2022-12-01T09:47:13;102055.75;;;-9.44;70.26
62655;BME280;48717;55.556;37.816;2022-12-01T09:52:18;102053.25;;;-9.13;69.66
62655;BME280;48717;55.556;37.816;2022-12-01T09:54:46;102047.50;;;-8.96;68.59
62655;BME280;48717;55.556;37.816;2022-12-01T09:59:56;102014.41;;;-8.87;67.76
62655;BME280;48717;55.556;37.816;2022-12-01T10:02:32;102063.34;;;-8.61;67.80
62655;BME280;48717;55.556;37.816;2022-12-01T10:05:04;102071.00;;;-8.54;68.80
62655;BME280;48717;55.556;37.816;2022-12-01T10:07:36;102046.16;;;-8.39;68.31
62655;BME280;48717;55.556;37.816;2022-12-01T10:10:47;102063.16;;;-8.16;67.77
62655;BME280;48717;55.556;37.816;2022-12-01T10:13:20;102040.28;;;-7.91;66.18
62655;BME280;48717;55.556;37.816;2022-12-01T10:16:12;102050.47;;;-7.51;65.82
62655;BME280;48717;55.556;37.816;2022-12-01T10:18:57;102049.28;;;-7.14;64.42
62655;BME280;48717;55.556;37.816;2022-12-01T10:24:28;102037.97;;;-6.41;62.58
62655;BME280;48717;55.556;37.816;2022-12-01T10:30:06;102025.06;;;-6.25;61.37
62655;BME280;48717;55.556;37.816;2022-12-01T10:35:15;102033.41;;;-6.01;60.11
62655;BME280;48717;55.556;37.816;2022-12-01T10:37:55;102010.53;;;-6.24;61.08
62655;BME280;48717;55.556;37.816;2022-12-01T10:40:24;102031.88;;;-6.50;61.37
62655;BME280;48717;55.556;37.816;2022-12-01T10:42:53;102031.94;;;-6.91;62.56
62655;BME280;48717;55.556;37.816;2022-12-01T10:50:33;102033.47;;;-7.90;66.75
62655;BME280;48717;55.556;37.816;2022-12-01T10:53:03;102023.63;;;-8.10;67.10
62655;BME280;48717;55.556;37.816;2022-12-01T10:55:39;101997.75;;;-8.21;67.45
62655;BME280;48717;55.556;37.816;2022-12-01T10:58:14;101977.47;;;-8.03;66.97
62655;BME280;48717;55.556;37.816;2022-12-01T11:00:43;102020.34;;;-7.45;66.32
62655;BME280;48717;55.556;37.816;2022-12-01T11:03:29;102019.88;;;-7.34;65.31
62655;BME280;48717;55.556;37.816;2022-12-01T11:05:59;102030.84;;;-7.35;65.38
62655;BME280;48717;55.556;37.816;2022-12-01T11:08:43;102009.88;;;-7.39;65.75
62655;BME280;48717;55.556;37.816;2022-12-01T11:14:20;102028.63;;;-7.31;66.40
62655;BME280;48717;55.556;37.816;2022-12-01T11:16:53;102007.31;;;-7.55;66.28
62655;BME280;48717;55.556;37.816;2022-12-01T11:19:33;102022.75;;;-7.79;67.20
62655;BME280;48717;55.556;37.816;2022-12-01T11:22:20;102023.97;;;-8.07;68.10
62655;BME280;48717;55.556;37.816;2022-12-01T11:27:32;101979.34;;;-8.88;70.38
62655;BME280;48717;55.556;37.816;2022-12-01T11:30:21;102025.38;;;-8.88;71.73
62655;BME280;48717;55.556;37.816;2022-12-01T11:32:59;102027.03;;;-8.96;71.49
62655;BME280;48717;55.556;37.816;2022-12-01T11:35:35;102039.53;;;-9.14;72.77
62655;BME280;48717;55.556;37.816;2022-12-01T11:38:32;102053.44;;;-9.19;72.67
62655;BME280;48717;55.556;37.816;2022-12-01T11:41:29;102039.13;;;-9.33;73.10
62655;BME280;48717;55.556;37.816;2022-12-01T11:44:27;102022.97;;;-9.63;74.54
62655;BME280;48717;55.556;37.816;2022-12-01T11:47:21;101997.34;;;-9.86;74.73
62655;BME280;48717;55.556;37.816;2022-12-01T11:49:55;102039.22;;;-9.62;75.31
62655;BME280;48717;55.556;37.816;2022-12-01T11:52:27;102028.25;;;-9.54;74.50
62655;BME280;48717;55.556;37.816;2022-12-01T11:57:43;102045.75;;;-9.57;73.99
62655;BME280;48717;55.556;37.816;2022-12-01T12:00:18;102024.13;;;-9.90;75.07
62655;BME280;48717;55.556;37.816;2022-12-01T12:10:44;102048.47;;;-10.44;77.91
62655;BME280;48717;55.556;37.816;2022-12-01T12:25:06;102020.31;;;-11.03;81.07
62655;BME280;48717;55.556;37.816;2022-12-01T12:30:30;102051.09;;;-11.01;81.05
62655;BME280;48717;55.556;37.816;2022-12-01T12:43:59;102037.75;;;-11.20;82.94
62655;BME280;48717;55.556;37.816;2022-12-01T12:46:58;102043.38;;;-11.23;84.02
62655;BME280;48717;55.556;37.816;2022-12-01T12:49:42;102045.78;;;-11.24;83.49
62655;BME280;48717;55.556;37.816;2022-12-01T12:52:15;102037.91;;;-11.33;82.93
62655;BME280;48717;55.556;37.816;2022-12-01T12:54:49;102047.00;;;-11.35;83.41
62655;BME280;48717;55.556;37.816;2022-12-01T12:57:28;102042.94;;;-11.41;83.10
62655;BME280;48717;55.556;37.816;2022-12-01T13:00:20;102044.56;;;-11.48;84.12
62655;BME280;48717;55.556;37.816;2022-12-01T13:08:14;102047.38;;;-11.67;85.57
62655;BME280;48717;55.556;37.816;2022-12-01T13:13:49;102046.59;;;-11.81;86.24
62655;BME280;48717;55.556;37.816;2022-12-01T13:16:27;102027.25;;;-11.93;85.78
62655;BME280;48717;55.556;37.816;2022-12-01T13:19:10;102055.09;;;-11.80;85.94
62655;BME280;48717;55.556;37.816;2022-12-01T13:21:42;102030.50;;;-11.94;86.98
62655;BME280;48717;55.556;37.816;2022-12-01T13:24:20;102038.91;;;-11.88;87.50
62655;BME280;48717;55.556;37.816;2022-12-01T13:26:58;102046.16;;;-11.91;87.53
62655;BME280;48717;55.556;37.816;2022-12-01T13:29:33;102021.00;;;-12.02;87.30
62655;BME280;48717;55.556;37.816;2022-12-01T13:34:51;102041.34;;;-12.02;87.35
62655;BME280;48717;55.556;37.816;2022-12-01T13:37:46;102039.53;;;-12.03;87.65
62655;BME280;48717;55.556;37.816;2022-12-01T13:43:03;102036.41;;;-12.15;87.94
62655;BME280;48717;55.556;37.816;2022-12-01T13:45:37;102007.41;;;-12.30;88.71
62655;BME280;48717;55.556;37.816;2022-12-01T13:48:25;102036.53;;;-12.21;88.98
62655;BME280;48717;55.556;37.816;2022-12-01T13:51:00;102048.47;;;-12.27;88.88
62655;BME280;48717;55.556;37.816;2022-12-01T13:53:35;102036.03;;;-12.39;89.69
62655;BME280;48717;55.556;37.816;2022-12-01T13:56:22;102002.63;;;-12.62;89.31
62655;BME280;48717;55.556;37.816;2022-12-01T13:58:52;102022.69;;;-12.51;89.98
62655;BME280;48717;55.556;37.816;2022-12-01T14:03:59;102027.69;;;-12.38;89.48
62655;BME280;48717;55.556;37.816;2022-12-01T14:06:45;102021.25;;;-12.49;89.68
62655;BME280;48717;55.556;37.816;2022-12-01T14:09:32;102027.25;;;-12.48;89.34
62655;BME280;48717;55.556;37.816;2022-12-01T14:12:03;102034.88;;;-12.48;89.76
62655;BME280;48717;55.556;37.816;2022-12-01T14:14:38;102004.75;;;-12.65;88.99
62655;BME280;48717;55.556;37.816;2022-12-01T14:17:06;102029.31;;;-12.59;89.36
62655;BME280;48717;55.556;37.816;2022-12-01T14:19:49;102024.25;;;-12.59;89.12
62655;BME280;48717;55.556;37.816;2022-12-01T14:22:37;102012.91;;;-12.68;89.70
62655;BME280;48717;55.556;37.816;2022-12-01T14:27:52;102026.09;;;-12.57;90.03
62655;BME280;48717;55.556;37.816;2022-12-01T14:33:41;102036.38;;;-12.63;89.04
62655;BME280;48717;55.556;37.816;2022-12-01T14:41:58;102017.59;;;-12.71;89.64
62655;BME280;48717;55.556;37.816;2022-12-01T14:44:50;102020.13;;;-12.71;89.83
62655;BME280;48717;55.556;37.816;2022-12-01T14:47:23;102021.91;;;-12.77;90.43
62655;BME280;48717;55.556;37.816;2022-12-01T14:50:00;102028.44;;;-12.79;90.84
62655;BME280;48717;55.556;37.816;2022-12-01T14:52:35;102011.41;;;-12.93;90.94
62655;BME280;48717;55.556;37.816;2022-12-01T14:55:11;102028.75;;;-12.83;91.08
62655;BME280;48717;55.556;37.816;2022-12-01T14:57:43;102011.88;;;-12.83;90.88
62655;BME280;48717;55.556;37.816;2022-12-01T15:03:02;101995.84;;;-13.09;90.99
62655;BME280;48717;55.556;37.816;2022-12-01T15:05:37;102027.44;;;-12.87;90.41
62655;BME280;48717;55.556;37.816;2022-12-01T15:08:18;102015.56;;;-12.94;90.10
62655;BME280;48717;55.556;37.816;2022-12-01T15:11:21;102026.53;;;-12.88;90.62
62655;BME280;48717;55.556;37.816;2022-12-01T15:13:52;102027.75;;;-12.91;90.86